createdAt,value
2022-10-23T00:00:58.957Z,26.48
2022-10-23T00:03:40.138Z,21.58
2022-10-23T00:06:14.817Z,22.38
2022-10-23T00:08:48.938Z,21.70
2022-10-23T00:11:24.397Z,22.50
2022-10-23T00:13:59.137Z,24.30
2022-10-23T00:16:32.303Z,29.25
2022-10-23T00:19:04.698Z,26.05
2022-10-23T00:21:39.677Z,25.33
2022-10-23T00:24:12.712Z,26.95
2022-10-23T00:26:45.118Z,27.40
2022-10-23T00:29:17.426Z,28.17
2022-10-23T00:31:49.319Z,27.73
2022-10-23T00:34:21.697Z,26.88
2022-10-23T00:36:56.118Z,28.58
2022-10-23T00:39:28.599Z,23.02
2022-10-23T00:42:00.456Z,22.85
2022-10-23T00:45:05.523Z,29.13
2022-10-23T00:47:37.437Z,19.23
2022-10-23T00:50:10.546Z,20.98
2022-10-23T00:52:50.078Z,22.98
2022-10-23T00:55:24.537Z,22.42
2022-10-23T00:57:56.960Z,21.25
2022-10-23T01:00:45.620Z,19.52
2022-10-23T01:03:18.904Z,20.90
2022-10-23T01:05:56.698Z,19.48
2022-10-23T01:08:38.938Z,16.70
2022-10-23T01:11:16.376Z,21.63
2022-10-23T01:13:57.857Z,17.30
2022-10-23T01:16:37.929Z,21.05
2022-10-23T01:19:18.037Z,20.13
2022-10-23T01:21:58.956Z,19.45
2022-10-23T01:24:51.877Z,16.20
2022-10-23T01:27:30.141Z,19.83
2022-10-23T01:30:09.277Z,17.95
2022-10-23T01:32:51.017Z,19.17
2022-10-23T01:35:26.479Z,20.00
2022-10-23T01:38:04.718Z,20.10
2022-10-23T01:40:41.298Z,20.65
2022-10-23T01:43:21.298Z,23.08
2022-10-23T01:45:58.358Z,18.50
2022-10-23T01:48:33.518Z,22.17
2022-10-23T01:51:09.558Z,20.63
2022-10-23T01:53:46.876Z,18.27
2022-10-23T01:56:23.416Z,21.63
2022-10-23T01:59:02.138Z,25.70
2022-10-23T02:01:38.197Z,20.38
2022-10-23T02:04:13.977Z,17.92
2022-10-23T02:06:46.338Z,20.63
2022-10-23T02:09:18.897Z,18.88
2022-10-23T02:11:57.778Z,20.02
2022-10-23T02:14:52.439Z,21.48
2022-10-23T02:17:33.545Z,20.33
2022-10-23T02:20:17.197Z,18.52
2022-10-23T02:22:59.117Z,16.70
2022-10-23T02:25:38.404Z,16.63
2022-10-23T02:28:18.436Z,21.58
2022-10-23T02:30:53.878Z,19.77
2022-10-23T02:33:27.717Z,15.57
2022-10-23T02:36:00.376Z,17.90
2022-10-23T02:38:40.858Z,23.27
2022-10-23T02:41:41.618Z,22.48
2022-10-23T02:44:28.778Z,29.25
2022-10-23T02:47:19.538Z,21.52
2022-10-23T02:50:00.917Z,19.00
2022-10-23T02:52:40.518Z,22.48
2022-10-23T02:55:25.379Z,23.80
2022-10-23T02:58:10.659Z,23.10
2022-10-23T03:00:49.598Z,22.98
2022-10-23T03:03:30.439Z,25.65
2022-10-23T03:06:02.739Z,25.85
2022-10-23T03:08:44.878Z,26.33
2022-10-23T03:11:17.159Z,23.73
2022-10-23T03:13:49.657Z,26.75
2022-10-23T03:16:21.897Z,19.88
2022-10-23T03:18:57.057Z,28.27
2022-10-23T03:21:29.059Z,27.55
2022-10-23T03:24:01.539Z,21.98
2022-10-23T03:26:33.618Z,24.17
2022-10-23T03:29:06.218Z,24.30
2022-10-23T03:31:38.376Z,23.27
2022-10-23T03:34:15.259Z,25.58
2022-10-23T03:36:47.436Z,31.70
2022-10-23T03:39:20.657Z,22.73
2022-10-23T03:41:52.683Z,25.17
2022-10-23T03:44:25.059Z,25.60
2022-10-23T03:46:57.298Z,27.90
2022-10-23T03:49:32.538Z,29.00
2022-10-23T03:52:04.820Z,27.25
2022-10-23T03:54:37.418Z,36.03
2022-10-23T03:57:09.438Z,28.70
2022-10-23T03:59:41.937Z,31.45
2022-10-23T04:02:14.221Z,32.78
2022-10-23T04:04:51.179Z,32.20
2022-10-23T04:07:23.099Z,27.42
2022-10-23T04:09:55.239Z,31.63
2022-10-23T04:12:27.598Z,28.75
2022-10-23T04:15:00.083Z,28.70
2022-10-23T04:17:32.202Z,32.60
2022-10-23T04:20:07.406Z,33.15
2022-10-23T04:22:39.159Z,36.58
2022-10-23T04:25:27.658Z,30.45
2022-10-23T04:28:11.618Z,30.17
2022-10-23T04:30:43.621Z,32.33
2022-10-23T04:33:15.417Z,36.95
2022-10-23T04:35:50.378Z,34.88
2022-10-23T04:38:22.277Z,36.33
2022-10-23T04:40:54.318Z,35.08
2022-10-23T04:43:25.987Z,39.20
2022-10-23T04:45:58.198Z,37.55
2022-10-23T04:48:29.838Z,34.97
2022-10-23T04:51:07.317Z,36.63
2022-10-23T04:53:39.598Z,35.28
2022-10-23T04:56:16.358Z,41.70
2022-10-23T04:58:48.139Z,35.38
2022-10-23T05:01:20.397Z,34.63
2022-10-23T05:03:54.337Z,38.85
2022-10-23T05:06:29.125Z,35.45
2022-10-23T05:09:00.938Z,38.10
2022-10-23T05:11:33.217Z,43.08
2022-10-23T05:14:05.117Z,43.67
2022-10-23T05:16:42.798Z,38.58
2022-10-23T05:19:24.270Z,38.95
2022-10-23T05:22:00.117Z,41.40
2022-10-23T05:24:32.298Z,35.88
2022-10-23T05:27:04.399Z,45.00
2022-10-23T05:29:36.318Z,42.05
2022-10-23T05:32:11.257Z,40.95
2022-10-23T05:34:43.858Z,41.33
2022-10-23T05:37:20.299Z,37.08
2022-10-23T05:39:52.358Z,41.60
2022-10-23T05:42:24.298Z,40.88
2022-10-23T05:44:58.256Z,37.85
2022-10-23T05:47:31.856Z,33.40
2022-10-23T05:50:03.479Z,36.63
2022-10-23T05:52:38.317Z,42.90
2022-10-23T05:55:10.898Z,40.75
2022-10-23T05:57:43.221Z,36.30
2022-10-23T06:00:16.376Z,40.00
2022-10-23T06:02:48.759Z,44.13
2022-10-23T06:05:20.929Z,39.88
2022-10-23T06:07:56.178Z,38.10
2022-10-23T06:10:28.525Z,36.60
2022-10-23T06:13:01.079Z,40.40
2022-10-23T06:15:33.140Z,34.72
2022-10-23T06:18:05.638Z,34.45
2022-10-23T06:20:40.398Z,34.90
2022-10-23T06:23:15.517Z,34.00
2022-10-23T06:26:02.958Z,36.05
2022-10-23T06:28:35.417Z,38.90
2022-10-23T06:31:09.079Z,34.67
2022-10-23T06:33:41.967Z,39.13
2022-10-23T06:36:14.298Z,34.50
2022-10-23T06:38:49.855Z,35.15
2022-10-23T06:41:24.520Z,31.05
2022-10-23T06:43:56.919Z,38.17
2022-10-23T06:46:33.336Z,35.30
2022-10-23T06:49:05.858Z,39.33
2022-10-23T06:51:38.098Z,33.35
2022-10-23T06:54:14.737Z,28.00
2022-10-23T06:56:47.037Z,30.65
2022-10-23T06:59:19.818Z,34.00
2022-10-23T07:01:52.140Z,31.30
2022-10-23T07:04:24.598Z,32.38
2022-10-23T07:06:59.118Z,29.40
2022-10-23T07:09:34.519Z,29.48
2022-10-23T07:12:06.901Z,28.23
2022-10-23T07:14:39.457Z,30.65
2022-10-23T07:17:11.577Z,26.42
2022-10-23T07:19:43.978Z,27.38
2022-10-23T07:22:16.316Z,28.70
2022-10-23T07:24:51.717Z,24.48
2022-10-23T07:27:23.799Z,24.73
2022-10-23T07:29:56.643Z,26.88
2022-10-23T07:32:28.919Z,25.48
2022-10-23T07:35:02.454Z,26.05
2022-10-23T07:37:34.698Z,22.10
2022-10-23T07:40:12.579Z,24.20
2022-10-23T07:42:44.938Z,22.98
2022-10-23T07:45:50.919Z,21.27
2022-10-23T07:48:24.281Z,24.05
2022-10-23T07:50:57.217Z,22.70
2022-10-23T07:53:30.178Z,20.23
2022-10-23T07:56:07.717Z,23.45
2022-10-23T07:58:39.858Z,21.10
2022-10-23T08:01:20.979Z,18.33
2022-10-23T08:03:53.098Z,17.10
2022-10-23T08:06:25.799Z,16.73
2022-10-23T08:08:59.920Z,23.45
2022-10-23T08:11:38.480Z,22.27
2022-10-23T08:14:11.476Z,17.98
2022-10-23T08:16:44.220Z,18.10
2022-10-23T08:19:16.757Z,18.83
2022-10-23T08:21:49.338Z,16.67
2022-10-23T08:24:21.597Z,17.58
2022-10-23T08:26:56.918Z,18.27
2022-10-23T08:29:29.197Z,19.17
2022-10-23T08:32:01.717Z,17.10
2022-10-23T08:34:53.196Z,19.58
2022-10-23T08:37:25.846Z,12.90
2022-10-23T08:39:58.459Z,15.98
2022-10-23T08:42:33.759Z,13.52
2022-10-23T08:45:14.943Z,15.73
2022-10-23T08:47:51.638Z,15.82
2022-10-23T08:53:28.597Z,10.48
2022-10-23T08:56:05.478Z,12.60
2022-10-23T08:58:46.741Z,11.65
2022-10-23T09:01:34.858Z,12.15
2022-10-23T09:04:32.039Z,9.30
2022-10-23T09:07:13.580Z,9.93
2022-10-23T09:09:58.496Z,9.07
2022-10-23T09:12:34.339Z,9.35
2022-10-23T09:15:18.358Z,10.65
2022-10-23T09:17:59.938Z,11.10
2022-10-23T09:20:37.837Z,13.60
2022-10-23T09:23:17.999Z,7.93
2022-10-23T09:25:57.280Z,10.57
2022-10-23T09:29:22.238Z,10.75
2022-10-23T09:32:43.382Z,9.43
2022-10-23T09:35:24.859Z,9.90
2022-10-23T09:38:23.640Z,8.20
2022-10-23T09:40:56.819Z,8.27
2022-10-23T09:43:29.738Z,9.50
2022-10-23T09:46:05.597Z,10.40
2022-10-23T09:48:45.538Z,9.52
2022-10-23T09:51:22.158Z,9.65
2022-10-23T09:53:57.645Z,7.60
2022-10-23T09:56:34.179Z,10.93
2022-10-23T09:59:09.957Z,12.88
2022-10-23T10:01:51.684Z,12.70
2022-10-23T10:04:35.639Z,9.85
2022-10-23T10:07:19.198Z,10.35
2022-10-23T10:09:52.645Z,12.50
2022-10-23T10:12:42.388Z,7.10
2022-10-23T10:15:23.520Z,7.38
2022-10-23T10:18:08.478Z,7.43
2022-10-23T10:21:05.795Z,8.00
2022-10-23T10:23:49.328Z,8.55
2022-10-23T10:26:34.231Z,7.13
2022-10-23T10:29:19.870Z,10.75
2022-10-23T10:32:02.549Z,9.38
2022-10-23T10:34:43.330Z,5.88
2022-10-23T10:37:43.895Z,8.18
2022-10-23T10:40:28.066Z,8.32
2022-10-23T10:43:19.743Z,5.88
2022-10-23T10:45:56.804Z,7.85
2022-10-23T10:48:50.564Z,9.65
2022-10-23T10:51:31.665Z,5.53
2022-10-23T10:54:27.272Z,5.95
2022-10-23T10:57:02.987Z,9.55
2022-10-23T10:59:42.925Z,9.65
2022-10-23T11:02:29.263Z,9.27
2022-10-23T11:05:09.323Z,7.50
2022-10-23T11:07:46.562Z,8.93
2022-10-23T11:10:23.102Z,8.57
2022-10-23T11:12:55.729Z,7.32
2022-10-23T11:15:32.522Z,10.13
2022-10-23T11:18:10.044Z,10.10
2022-10-23T11:21:09.225Z,6.82
2022-10-23T11:24:01.169Z,7.85
2022-10-23T11:26:51.730Z,8.57
2022-10-23T11:29:47.944Z,7.85
2022-10-23T11:32:53.144Z,8.65
2022-10-23T11:35:42.096Z,9.52
2022-10-23T11:38:21.635Z,7.05
2022-10-23T11:40:57.110Z,6.68
2022-10-23T11:43:34.635Z,8.60
2022-10-23T11:46:32.914Z,10.68
2022-10-23T11:49:06.638Z,7.75
2022-10-23T11:52:05.354Z,7.45
2022-10-23T11:55:06.075Z,7.95
2022-10-23T11:57:38.277Z,6.72
2022-10-23T12:00:28.057Z,8.27
2022-10-23T12:03:25.493Z,9.43
2022-10-23T12:06:05.137Z,7.13
2022-10-23T12:08:41.876Z,6.35
2022-10-23T12:11:33.263Z,8.38
2022-10-23T12:14:05.619Z,7.63
2022-10-23T12:16:43.422Z,5.78
2022-10-23T12:19:24.197Z,7.47
2022-10-23T12:22:00.601Z,10.18
2022-10-23T12:24:47.455Z,11.40
2022-10-23T12:27:36.757Z,7.93
2022-10-23T12:30:22.874Z,6.97
2022-10-23T12:33:12.916Z,10.07
2022-10-23T12:36:12.976Z,8.40
2022-10-23T12:38:50.337Z,8.85
2022-10-23T12:41:27.763Z,6.13
2022-10-23T12:44:02.696Z,6.85
2022-10-23T12:46:39.176Z,7.30
2022-10-23T12:49:21.341Z,7.78
2022-10-23T12:52:00.060Z,10.75
2022-10-23T12:54:34.514Z,5.50
2022-10-23T12:57:24.235Z,9.45
2022-10-23T13:00:02.659Z,5.40
2022-10-23T13:02:37.829Z,6.88
2022-10-23T13:05:17.737Z,7.35
2022-10-23T13:07:52.657Z,6.57
2022-10-23T13:10:27.431Z,7.00
2022-10-23T13:13:05.899Z,6.90
2022-10-23T13:15:42.997Z,8.35
2022-10-23T13:18:32.494Z,9.18
2022-10-23T13:21:08.175Z,7.05
2022-10-23T13:23:43.816Z,7.03
2022-10-23T13:26:29.175Z,6.90
2022-10-23T13:29:08.750Z,11.18
2022-10-23T13:31:41.834Z,12.27
2022-10-23T13:34:29.175Z,8.10
2022-10-23T13:37:23.474Z,6.53
2022-10-23T13:40:08.077Z,7.07
2022-10-23T13:42:40.322Z,9.32
2022-10-23T13:45:21.850Z,7.00
2022-10-23T13:47:56.393Z,11.68
2022-10-23T13:50:29.144Z,8.95
2022-10-23T13:53:06.151Z,9.85
2022-10-23T13:55:39.733Z,11.48
2022-10-23T13:58:12.653Z,9.57
2022-10-23T14:00:46.111Z,10.15
2022-10-23T14:03:19.111Z,14.30
2022-10-23T14:05:51.670Z,8.00
2022-10-23T14:08:26.476Z,9.45
2022-10-23T14:10:58.870Z,6.90
2022-10-23T14:13:32.290Z,9.88
2022-10-23T14:16:04.890Z,5.97
2022-10-23T14:18:37.511Z,6.72
2022-10-23T14:21:11.752Z,8.70
2022-10-23T14:23:48.553Z,9.20
2022-10-23T14:26:33.133Z,8.85
2022-10-23T14:29:17.791Z,12.70
2022-10-23T14:31:53.757Z,8.60
2022-10-23T14:34:25.778Z,10.27
2022-10-23T14:37:08.038Z,6.30
2022-10-23T14:39:48.877Z,8.13
2022-10-23T14:42:22.152Z,6.82
2022-10-23T14:44:54.080Z,6.93
2022-10-23T14:47:26.451Z,6.55
2022-10-23T14:49:58.849Z,9.07
2022-10-23T14:52:31.430Z,9.55
2022-10-23T14:55:06.074Z,5.45
2022-10-23T14:57:38.250Z,6.55
2022-10-23T15:00:11.616Z,7.80
2022-10-23T15:02:44.092Z,6.85
2022-10-23T15:05:16.269Z,12.23
2022-10-23T15:07:48.627Z,6.78
2022-10-23T15:10:23.248Z,9.13
2022-10-23T15:12:55.426Z,14.48
2022-10-23T15:15:29.866Z,21.98
2022-10-23T15:18:06.926Z,10.77
2022-10-23T15:20:38.828Z,10.85
2022-10-23T15:23:11.047Z,13.02
2022-10-23T15:25:45.668Z,8.98
2022-10-23T15:28:17.870Z,9.65
2022-10-23T15:30:49.769Z,12.27
2022-10-23T15:33:22.168Z,10.75
2022-10-23T15:35:54.770Z,10.40
2022-10-23T15:38:27.515Z,13.88
2022-10-23T15:41:23.717Z,10.00
2022-10-23T15:43:55.850Z,13.48
2022-10-23T15:46:27.756Z,11.85
2022-10-23T15:49:00.336Z,9.50
2022-10-23T15:51:32.598Z,9.23
2022-10-23T15:54:04.816Z,11.55
2022-10-23T15:56:39.617Z,10.52
2022-10-23T15:59:11.955Z,9.45
2022-10-23T16:01:44.281Z,12.15
2022-10-23T16:04:33.699Z,11.50
2022-10-23T16:07:07.457Z,9.40
2022-10-23T16:09:40.036Z,12.82
2022-10-23T16:12:14.798Z,13.40
2022-10-23T16:14:47.078Z,12.27
2022-10-23T16:17:19.599Z,10.30
2022-10-23T16:19:51.964Z,9.00
2022-10-23T16:22:23.778Z,9.52
2022-10-23T16:24:55.905Z,12.30
2022-10-23T16:27:30.396Z,13.63
2022-10-23T16:30:02.537Z,12.63
2022-10-23T16:32:35.125Z,10.80
2022-10-23T16:35:09.821Z,15.18
2022-10-23T16:37:44.494Z,9.50
2022-10-23T16:40:20.036Z,9.05
2022-10-23T16:42:54.617Z,9.88
2022-10-23T16:45:27.177Z,11.68
2022-10-23T16:47:58.976Z,11.82
2022-10-23T16:50:31.272Z,11.13
2022-10-23T16:53:03.324Z,14.90
2022-10-23T16:55:35.738Z,13.50
2022-10-23T16:58:29.956Z,11.25
2022-10-23T17:01:04.156Z,13.60
2022-10-23T17:03:53.662Z,11.75
2022-10-23T17:06:29.145Z,12.07
2022-10-23T17:09:02.483Z,14.63
2022-10-23T17:11:37.820Z,12.70
2022-10-23T17:14:17.657Z,12.45
2022-10-23T17:16:52.123Z,11.70
2022-10-23T17:19:43.689Z,9.57
2022-10-23T17:22:17.616Z,11.57
2022-10-23T17:24:51.627Z,13.07
2022-10-23T17:27:26.296Z,12.73
2022-10-23T17:30:01.115Z,12.95
2022-10-23T17:32:33.264Z,12.05
2022-10-23T17:35:07.216Z,13.90
2022-10-23T17:37:39.517Z,15.23
2022-10-23T17:40:12.612Z,12.20
2022-10-23T17:43:04.632Z,12.10
2022-10-23T17:45:40.653Z,17.75
2022-10-23T17:48:12.934Z,12.02
2022-10-23T17:50:44.854Z,11.68
2022-10-23T17:53:26.332Z,14.80
2022-10-23T17:56:00.893Z,11.63
2022-10-23T17:58:33.032Z,9.55
2022-10-23T18:01:10.795Z,11.48
2022-10-23T18:03:43.272Z,10.73
2022-10-23T18:06:17.216Z,14.48
2022-10-23T18:08:49.638Z,9.25
2022-10-23T18:11:23.435Z,13.38
2022-10-23T18:13:55.681Z,11.02
2022-10-23T18:16:30.755Z,11.18
2022-10-23T18:19:03.379Z,8.98
2022-10-23T18:21:36.074Z,11.80
2022-10-23T18:24:08.681Z,8.68
2022-10-23T18:26:40.773Z,7.05
2022-10-23T18:29:15.195Z,9.30
2022-10-23T18:31:50.914Z,10.23
2022-10-23T18:34:25.334Z,12.70
2022-10-23T18:36:58.195Z,11.70
2022-10-23T18:39:30.556Z,11.40
2022-10-23T18:42:02.315Z,13.07
2022-10-23T18:44:34.154Z,9.90
2022-10-23T18:47:09.486Z,12.15
2022-10-23T18:49:41.454Z,11.02
2022-10-23T18:52:13.220Z,13.70
2022-10-23T18:54:45.220Z,10.00
2022-10-23T18:57:16.893Z,12.95
2022-10-23T18:59:50.514Z,12.43
2022-10-23T19:02:24.927Z,13.07
2022-10-23T19:04:57.220Z,10.50
2022-10-23T19:07:29.153Z,14.38
2022-10-23T19:10:00.880Z,10.35
2022-10-23T19:12:32.594Z,10.02
2022-10-23T19:15:04.417Z,10.65
2022-10-23T19:17:39.286Z,14.82
2022-10-23T19:20:17.293Z,11.85
2022-10-23T19:22:52.375Z,11.32
2022-10-23T19:25:28.330Z,12.13
2022-10-23T19:28:01.738Z,12.15
2022-10-23T19:30:40.975Z,11.07
2022-10-23T19:33:15.231Z,12.10
2022-10-23T19:35:47.214Z,14.38
2022-10-23T19:38:18.911Z,12.10
2022-10-23T19:40:51.370Z,9.27
2022-10-23T19:43:22.850Z,10.65
2022-10-23T19:45:54.940Z,9.93
2022-10-23T19:48:29.090Z,10.23
2022-10-23T19:51:01.090Z,13.73
2022-10-23T19:53:33.938Z,10.32
2022-10-23T19:56:07.997Z,9.98
2022-10-23T19:58:40.064Z,14.48
2022-10-23T20:01:14.815Z,10.80
2022-10-23T20:03:50.225Z,11.88
2022-10-23T20:06:24.528Z,11.82
2022-10-23T20:08:56.923Z,11.60
2022-10-23T20:11:30.845Z,12.43
2022-10-23T20:14:03.370Z,13.85
2022-10-23T20:16:37.538Z,12.70
2022-10-23T20:22:10.185Z,18.95
2022-10-23T20:24:42.526Z,13.30
2022-10-23T20:27:14.946Z,17.23
2022-10-23T20:29:46.565Z,13.82
2022-10-23T20:32:18.907Z,10.68
2022-10-23T20:34:53.046Z,15.00
2022-10-23T20:37:24.825Z,11.70
2022-10-23T20:39:58.248Z,13.02
2022-10-23T20:42:30.066Z,12.48
2022-10-23T20:45:01.633Z,11.57
2022-10-23T20:47:33.545Z,13.18
2022-10-23T20:50:08.784Z,14.25
2022-10-23T20:52:40.727Z,12.18
2022-10-23T20:55:13.205Z,11.88
2022-10-23T20:57:59.029Z,12.05
2022-10-23T21:00:30.644Z,13.20
2022-10-23T21:03:04.384Z,15.18
2022-10-23T21:05:38.486Z,12.13
2022-10-23T21:08:10.283Z,13.95
2022-10-23T21:10:48.507Z,15.15
2022-10-23T21:13:20.363Z,14.50
2022-10-23T21:15:51.945Z,14.63
2022-10-23T21:18:27.361Z,15.95
2022-10-23T21:21:08.505Z,14.68
2022-10-23T21:23:41.172Z,14.10
2022-10-23T21:26:12.989Z,11.27
2022-10-23T21:28:55.823Z,14.27
2022-10-23T21:31:32.696Z,14.25
2022-10-23T21:34:04.856Z,17.75
2022-10-23T21:36:48.503Z,14.15
2022-10-23T21:39:31.245Z,16.52
2022-10-23T21:42:02.864Z,16.33
2022-10-23T21:44:34.733Z,13.15
2022-10-23T21:47:06.366Z,14.63
2022-10-23T21:49:38.288Z,13.27
2022-10-23T21:52:15.037Z,16.08
2022-10-23T21:54:49.627Z,14.90
2022-10-23T21:57:21.226Z,15.82
2022-10-23T21:59:53.064Z,15.68
2022-10-23T22:02:24.659Z,18.75
2022-10-23T22:04:56.605Z,15.65
2022-10-23T22:07:31.108Z,15.07
2022-10-23T22:10:03.445Z,17.42
2022-10-23T22:12:35.464Z,14.70
2022-10-23T22:15:08.686Z,14.55
2022-10-23T22:17:40.712Z,18.70
2022-10-23T22:20:13.546Z,14.00
2022-10-23T22:22:48.125Z,17.20
2022-10-23T22:25:20.545Z,16.38
2022-10-23T22:27:52.604Z,15.57
2022-10-23T22:30:24.726Z,14.95
2022-10-23T22:32:56.565Z,17.23
2022-10-23T22:35:28.865Z,17.77
2022-10-23T22:38:04.765Z,15.95
2022-10-23T22:40:45.633Z,15.93
2022-10-23T22:43:18.411Z,16.50
2022-10-23T22:45:50.525Z,16.90
2022-10-23T22:48:22.325Z,15.20
2022-10-23T22:50:57.065Z,19.38
2022-10-23T22:53:31.646Z,18.80
2022-10-23T22:56:03.584Z,14.25
2022-10-23T22:58:35.125Z,17.23
2022-10-23T23:01:10.902Z,21.52
2022-10-23T23:03:42.526Z,18.33
2022-10-23T23:06:15.185Z,17.15
2022-10-23T23:08:50.945Z,18.42
2022-10-23T23:11:24.793Z,15.32
2022-10-23T23:13:56.490Z,18.08
2022-10-23T23:16:31.725Z,22.35
2022-10-23T23:19:05.068Z,20.50
2022-10-23T23:21:36.945Z,18.92
2022-10-23T23:24:11.284Z,20.48
2022-10-23T23:26:43.255Z,19.98
2022-10-23T23:29:15.787Z,20.98
2022-10-23T23:32:29.526Z,19.13
2022-10-23T23:35:02.571Z,19.50
2022-10-23T23:37:34.645Z,20.63
2022-10-23T23:40:09.966Z,20.60
2022-10-23T23:42:42.043Z,19.70
2022-10-23T23:45:15.134Z,20.58
2022-10-23T23:47:47.274Z,23.33
2022-10-23T23:50:19.366Z,25.83
2022-10-23T23:52:51.205Z,27.45
2022-10-23T23:55:25.446Z,28.80
2022-10-23T23:57:57.226Z,28.58
